sensor_id;sensor_type;location;lat;lon;timestamp;P1;durP1;ratioP1;P2;durP2;ratioP2
17494;SDS011;8864;51.970;4.614;2022-08-19T00:00:00;7.20;;;3.78;;
17494;SDS011;8864;51.970;4.614;2022-08-19T00:31:50;11.57;;;3.10;;
17494;SDS011;8864;51.970;4.614;2022-08-19T00:36:53;8.10;;;3.92;;
17494;SDS011;8864;51.970;4.614;2022-08-19T00:39:38;9.20;;;3.72;;
17494;SDS011;8864;51.970;4.614;2022-08-19T00:42:24;7.15;;;3.88;;
17494;SDS011;8864;51.970;4.614;2022-08-19T00:50:40;6.72;;;3.50;;
17494;SDS011;8864;51.970;4.614;2022-08-19T01:13:47;9.32;;;4.05;;
17494;SDS011;8864;51.970;4.614;2022-08-19T01:16:16;10.30;;;3.60;;
17494;SDS011;8864;51.970;4.614;2022-08-19T01:18:49;9.20;;;3.95;;
17494;SDS011;8864;51.970;4.614;2022-08-19T01:24:34;9.30;;;3.72;;
17494;SDS011;8864;51.970;4.614;2022-08-19T01:36:10;12.73;;;3.65;;
17494;SDS011;8864;51.970;4.614;2022-08-19T01:38:39;11.10;;;3.55;;
17494;SDS011;8864;51.970;4.614;2022-08-19T01:41:09;6.15;;;3.63;;
17494;SDS011;8864;51.970;4.614;2022-08-19T01:43:36;8.95;;;3.75;;
17494;SDS011;8864;51.970;4.614;2022-08-19T01:46:04;9.45;;;3.72;;
17494;SDS011;8864;51.970;4.614;2022-08-19T01:51:07;6.85;;;3.15;;
17494;SDS011;8864;51.970;4.614;2022-08-19T01:53:39;7.65;;;3.88;;
17494;SDS011;8864;51.970;4.614;2022-08-19T01:56:06;5.55;;;3.05;;
17494;SDS011;8864;51.970;4.614;2022-08-19T01:58:36;6.85;;;3.10;;
17494;SDS011;8864;51.970;4.614;2022-08-19T02:01:10;7.47;;;3.42;;
17494;SDS011;8864;51.970;4.614;2022-08-19T02:03:38;7.97;;;3.22;;
17494;SDS011;8864;51.970;4.614;2022-08-19T02:06:29;11.30;;;3.72;;
17494;SDS011;8864;51.970;4.614;2022-08-19T02:08:59;8.55;;;3.45;;
17494;SDS011;8864;51.970;4.614;2022-08-19T02:11:49;5.60;;;3.40;;
17494;SDS011;8864;51.970;4.614;2022-08-19T02:17:08;6.53;;;3.60;;
17494;SDS011;8864;51.970;4.614;2022-08-19T02:26:51;9.60;;;4.13;;
17494;SDS011;8864;51.970;4.614;2022-08-19T02:29:42;7.22;;;4.75;;
17494;SDS011;8864;51.970;4.614;2022-08-19T02:35:36;11.98;;;6.68;;
17494;SDS011;8864;51.970;4.614;2022-08-19T02:38:35;13.10;;;6.50;;
17494;SDS011;8864;51.970;4.614;2022-08-19T02:41:21;11.77;;;7.03;;
17494;SDS011;8864;51.970;4.614;2022-08-19T03:14:41;17.30;;;9.77;;
17494;SDS011;8864;51.970;4.614;2022-08-19T03:20:49;15.13;;;9.30;;
17494;SDS011;8864;51.970;4.614;2022-08-19T03:27:02;21.17;;;10.20;;
17494;SDS011;8864;51.970;4.614;2022-08-19T03:29:46;20.55;;;10.82;;
17494;SDS011;8864;51.970;4.614;2022-08-19T03:32:16;19.70;;;9.85;;
17494;SDS011;8864;51.970;4.614;2022-08-19T03:40:58;20.38;;;10.13;;
17494;SDS011;8864;51.970;4.614;2022-08-19T04:00:43;19.17;;;9.40;;
17494;SDS011;8864;51.970;4.614;2022-08-19T04:03:36;27.13;;;10.70;;
17494;SDS011;8864;51.970;4.614;2022-08-19T04:12:42;29.10;;;12.35;;
17494;SDS011;8864;51.970;4.614;2022-08-19T04:15:24;22.88;;;13.10;;
17494;SDS011;8864;51.970;4.614;2022-08-19T04:24:23;38.08;;;17.92;;
17494;SDS011;8864;51.970;4.614;2022-08-19T04:30:19;35.38;;;17.73;;
17494;SDS011;8864;51.970;4.614;2022-08-19T04:35:59;33.05;;;17.95;;
17494;SDS011;8864;51.970;4.614;2022-08-19T04:38:41;39.20;;;19.98;;
17494;SDS011;8864;51.970;4.614;2022-08-19T04:41:07;37.40;;;19.45;;
17494;SDS011;8864;51.970;4.614;2022-08-19T04:44:02;39.72;;;19.88;;
17494;SDS011;8864;51.970;4.614;2022-08-19T04:46:29;40.88;;;20.45;;
17494;SDS011;8864;51.970;4.614;2022-08-19T04:48:59;34.90;;;18.23;;
17494;SDS011;8864;51.970;4.614;2022-08-19T04:51:31;39.60;;;19.67;;
17494;SDS011;8864;51.970;4.614;2022-08-19T04:53:58;38.75;;;18.88;;
17494;SDS011;8864;51.970;4.614;2022-08-19T04:56:26;37.40;;;19.25;;
17494;SDS011;8864;51.970;4.614;2022-08-19T04:58:54;38.60;;;18.50;;
17494;SDS011;8864;51.970;4.614;2022-08-19T05:01:23;36.35;;;18.52;;
17494;SDS011;8864;51.970;4.614;2022-08-19T05:03:58;43.83;;;21.08;;
17494;SDS011;8864;51.970;4.614;2022-08-19T05:06:33;43.40;;;19.60;;
17494;SDS011;8864;51.970;4.614;2022-08-19T05:22:23;43.58;;;20.15;;
17494;SDS011;8864;51.970;4.614;2022-08-19T05:28:40;38.83;;;18.58;;
17494;SDS011;8864;51.970;4.614;2022-08-19T05:31:18;41.75;;;20.38;;
17494;SDS011;8864;51.970;4.614;2022-08-19T05:34:02;43.95;;;20.67;;
17494;SDS011;8864;51.970;4.614;2022-08-19T05:39:41;42.15;;;19.77;;
17494;SDS011;8864;51.970;4.614;2022-08-19T05:45:29;42.58;;;17.90;;
17494;SDS011;8864;51.970;4.614;2022-08-19T05:47:56;40.30;;;19.10;;
17494;SDS011;8864;51.970;4.614;2022-08-19T05:50:24;35.75;;;17.77;;
17494;SDS011;8864;51.970;4.614;2022-08-19T05:52:51;34.40;;;16.77;;
17494;SDS011;8864;51.970;4.614;2022-08-19T05:55:20;44.03;;;16.52;;
17494;SDS011;8864;51.970;4.614;2022-08-19T05:57:47;39.95;;;17.88;;
17494;SDS011;8864;51.970;4.614;2022-08-19T06:00:14;35.40;;;16.35;;
17494;SDS011;8864;51.970;4.614;2022-08-19T06:02:41;37.90;;;18.73;;
17494;SDS011;8864;51.970;4.614;2022-08-19T06:05:08;36.60;;;16.10;;
17494;SDS011;8864;51.970;4.614;2022-08-19T06:07:36;37.60;;;14.95;;
17494;SDS011;8864;51.970;4.614;2022-08-19T06:10:03;40.80;;;15.57;;
17494;SDS011;8864;51.970;4.614;2022-08-19T06:59:08;32.00;;;12.98;;
17494;SDS011;8864;51.970;4.614;2022-08-19T07:01:37;32.08;;;13.85;;
17494;SDS011;8864;51.970;4.614;2022-08-19T07:04:07;28.08;;;12.40;;
17494;SDS011;8864;51.970;4.614;2022-08-19T07:06:35;32.42;;;13.50;;
17494;SDS011;8864;51.970;4.614;2022-08-19T07:09:02;27.85;;;12.38;;
17494;SDS011;8864;51.970;4.614;2022-08-19T07:11:30;43.85;;;14.77;;
17494;SDS011;8864;51.970;4.614;2022-08-19T07:13:58;62.40;;;19.80;;
17494;SDS011;8864;51.970;4.614;2022-08-19T07:16:25;47.33;;;16.92;;
17494;SDS011;8864;51.970;4.614;2022-08-19T07:18:53;40.65;;;16.15;;
17494;SDS011;8864;51.970;4.614;2022-08-19T07:21:23;40.10;;;16.13;;
17494;SDS011;8864;51.970;4.614;2022-08-19T07:23:54;30.80;;;14.63;;
17494;SDS011;8864;51.970;4.614;2022-08-19T07:26:23;44.35;;;12.98;;
17494;SDS011;8864;51.970;4.614;2022-08-19T07:28:52;35.50;;;13.85;;
17494;SDS011;8864;51.970;4.614;2022-08-19T07:31:22;29.90;;;15.65;;
17494;SDS011;8864;51.970;4.614;2022-08-19T07:33:50;28.27;;;13.65;;
17494;SDS011;8864;51.970;4.614;2022-08-19T07:36:21;34.08;;;15.32;;
17494;SDS011;8864;51.970;4.614;2022-08-19T07:38:53;37.17;;;16.63;;
17494;SDS011;8864;51.970;4.614;2022-08-19T07:43:55;26.33;;;13.95;;
17494;SDS011;8864;51.970;4.614;2022-08-19T07:46:24;32.60;;;14.45;;
17494;SDS011;8864;51.970;4.614;2022-08-19T07:48:53;40.03;;;15.85;;
17494;SDS011;8864;51.970;4.614;2022-08-19T09:39:08;12.75;;;6.97;;
17494;SDS011;8864;51.970;4.614;2022-08-19T09:41:49;15.65;;;6.85;;
17494;SDS011;8864;51.970;4.614;2022-08-19T09:47:53;25.25;;;6.38;;
17494;SDS011;8864;51.970;4.614;2022-08-19T09:50:43;16.40;;;6.70;;
17494;SDS011;8864;51.970;4.614;2022-08-19T09:59:26;15.85;;;7.00;;
17494;SDS011;8864;51.970;4.614;2022-08-19T10:01:53;12.32;;;5.82;;
17494;SDS011;8864;51.970;4.614;2022-08-19T10:04:21;18.90;;;7.28;;
17494;SDS011;8864;51.970;4.614;2022-08-19T10:06:48;14.73;;;7.50;;
17494;SDS011;8864;51.970;4.614;2022-08-19T10:09:17;16.95;;;6.97;;
17494;SDS011;8864;51.970;4.614;2022-08-19T10:11:44;11.38;;;5.90;;
17494;SDS011;8864;51.970;4.614;2022-08-19T10:14:14;13.65;;;5.90;;
17494;SDS011;8864;51.970;4.614;2022-08-19T10:16:42;8.30;;;4.60;;
17494;SDS011;8864;51.970;4.614;2022-08-19T10:19:09;13.10;;;5.35;;
17494;SDS011;8864;51.970;4.614;2022-08-19T13:35:05;13.13;;;6.10;;
17494;SDS011;8864;51.970;4.614;2022-08-19T13:37:32;14.07;;;7.32;;
17494;SDS011;8864;51.970;4.614;2022-08-19T13:40:09;17.55;;;7.90;;
17494;SDS011;8864;51.970;4.614;2022-08-19T13:42:40;14.43;;;7.05;;
17494;SDS011;8864;51.970;4.614;2022-08-19T13:47:44;12.23;;;5.65;;
17494;SDS011;8864;51.970;4.614;2022-08-19T13:55:56;10.75;;;4.82;;
17494;SDS011;8864;51.970;4.614;2022-08-19T13:58:57;6.53;;;4.22;;
17494;SDS011;8864;51.970;4.614;2022-08-19T14:01:40;8.93;;;4.65;;
17494;SDS011;8864;51.970;4.614;2022-08-19T14:04:07;7.65;;;4.40;;
17494;SDS011;8864;51.970;4.614;2022-08-19T14:06:40;7.28;;;4.45;;
17494;SDS011;8864;51.970;4.614;2022-08-19T14:09:08;12.13;;;5.35;;
17494;SDS011;8864;51.970;4.614;2022-08-19T14:11:40;16.60;;;5.78;;
17494;SDS011;8864;51.970;4.614;2022-08-19T14:57:24;5.85;;;1.48;;
17494;SDS011;8864;51.970;4.614;2022-08-19T15:06:44;4.63;;;1.20;;
17494;SDS011;8864;51.970;4.614;2022-08-19T15:09:41;3.00;;;1.38;;
17494;SDS011;8864;51.970;4.614;2022-08-19T15:15:55;4.80;;;1.58;;
17494;SDS011;8864;51.970;4.614;2022-08-19T15:18:46;3.53;;;1.60;;
17494;SDS011;8864;51.970;4.614;2022-08-19T15:21:15;3.38;;;1.42;;
17494;SDS011;8864;51.970;4.614;2022-08-19T15:23:48;5.20;;;1.48;;
17494;SDS011;8864;51.970;4.614;2022-08-19T15:26:19;2.75;;;1.30;;
17494;SDS011;8864;51.970;4.614;2022-08-19T15:28:46;3.05;;;1.38;;
17494;SDS011;8864;51.970;4.614;2022-08-19T15:31:16;2.33;;;1.13;;
17494;SDS011;8864;51.970;4.614;2022-08-19T15:33:44;2.33;;;1.20;;
17494;SDS011;8864;51.970;4.614;2022-08-19T15:36:13;4.20;;;1.33;;
17494;SDS011;8864;51.970;4.614;2022-08-19T15:38:40;2.83;;;1.20;;
17494;SDS011;8864;51.970;4.614;2022-08-19T15:41:14;4.57;;;1.70;;
17494;SDS011;8864;51.970;4.614;2022-08-19T15:43:51;3.38;;;1.50;;
17494;SDS011;8864;51.970;4.614;2022-08-19T15:46:22;4.28;;;1.70;;
17494;SDS011;8864;51.970;4.614;2022-08-19T15:48:51;3.35;;;1.50;;
17494;SDS011;8864;51.970;4.614;2022-08-19T15:51:19;6.35;;;1.40;;
17494;SDS011;8864;51.970;4.614;2022-08-19T15:53:47;5.97;;;1.80;;
17494;SDS011;8864;51.970;4.614;2022-08-19T15:56:15;3.72;;;1.50;;
17494;SDS011;8864;51.970;4.614;2022-08-19T17:14:32;1.13;;;0.95;;
17494;SDS011;8864;51.970;4.614;2022-08-19T17:17:21;1.30;;;0.82;;
